Etusivu
METAR-TAF:

METAR-TAF

Lentoasemat :

Haines, Alaska, Yhdysvallat

Leveyspiiri: 59-15N, Pituuspiiri: 135-31W, korkeus merenpinnasta: 5 m

Tämänhetkinen sää

Tämä raportti tehtiin 1 tunti ja 9 minuuttia sitten, kello 09.54 UTC
Tuuli 12 kn lännestä/luoteesta
Lämpötila -2°C
Kosteus 74%
Ilmanpaine 1008 hPa
Näkyvyys: 16.1 km
selkeää

METAR: PAHN 170954Z AUTO 29012KT 10SM CLR M02/M06 A2978 RMK AO2 SLP087 T10221056 TSNO

Aika: 02:03 (11:03 UTC)

Sääennuste

Tämä raportti tehtiin 5 tuntia ja 40 minuuttia sitten, kello 05.23 UTC
Ennuste voimassa 17. päivästä klo 06 UTC - 18. päivään klo 06 UTC
Tuuli 14 kn lännestä/luoteesta
Näkyvyys: 10 km
Muutamia pilviä 10000 ft:n korkeudessa
From 17. päivästä klo 1600 UTC
Tuuli 18 kn lännestä/luoteesta puuskistuen 22 kn:hen
Näkyvyys: 10 km
selkeää

TAF: PAHN 170523Z 1706/1806 30014KT P6SM FEW100 FM171600 30018G22KT P6SM SKC AMD LTD TO CLD VIS AND WIND

Säähavainnot ja -ennusteet yli 4000 lentoasemalta (METAR- ja TAF-raportit).

Käytössä olevat sääasemat on merkitty karttaan keltaisilla ja punaisilla pisteillä.

Aseta hiiri pisteen päälle nähdäksesi sääaseman nimen.

Klikkaa sitten nähdäksesi säähavainnot ja -ennusteet.

Kartan vaihtaminen: klikkaa mustalla rastilla varustettuja vihreitä pisteitä, niin voit zoomata sisään; viivalla varustettua vihreää pistettä, niin voit zoomata ulos tai vihreitä nuolia, niin pääset viereisille kartoille.


METAR-TAF: